sensor_id;sensor_type;location;lat;lon;timestamp;pressure;altitude;pressure_sealevel;temperature;humidity
49030;BME280;43337;52.070;4.508;2022-09-30T00:01:22;100921.25;;;9.92;85.81
49030;BME280;43337;52.070;4.508;2022-09-30T00:03:50;100964.88;;;10.19;86.42
49030;BME280;43337;52.070;4.508;2022-09-30T00:06:15;100928.94;;;9.96;86.18
49030;BME280;43337;52.070;4.508;2022-09-30T00:08:41;100959.00;;;10.13;86.47
49030;BME280;43337;52.070;4.508;2022-09-30T00:11:10;100928.22;;;9.93;86.24
49030;BME280;43337;52.070;4.508;2022-09-30T00:13:38;100919.50;;;9.91;86.44
49030;BME280;43337;52.070;4.508;2022-09-30T00:16:08;100954.59;;;10.13;86.46
49030;BME280;43337;52.070;4.508;2022-09-30T00:18:34;100969.34;;;10.17;86.37
49030;BME280;43337;52.070;4.508;2022-09-30T00:21:00;100935.97;;;9.96;86.35
49030;BME280;43337;52.070;4.508;2022-09-30T00:23:26;100954.88;;;10.06;86.62
49030;BME280;43337;52.070;4.508;2022-09-30T00:25:57;100930.84;;;9.93;86.49
49030;BME280;43337;52.070;4.508;2022-09-30T00:28:22;100967.53;;;10.19;86.71
49030;BME280;43337;52.070;4.508;2022-09-30T00:30:48;100925.50;;;9.94;86.56
49030;BME280;43337;52.070;4.508;2022-09-30T00:33:13;100918.44;;;9.96;86.66
49030;BME280;43337;52.070;4.508;2022-09-30T00:35:38;100940.06;;;10.03;86.99
49030;BME280;43337;52.070;4.508;2022-09-30T00:38:04;100912.59;;;9.88;86.71
49030;BME280;43337;52.070;4.508;2022-09-30T00:40:32;100941.00;;;10.02;86.70
49030;BME280;43337;52.070;4.508;2022-09-30T00:42:58;100944.47;;;10.02;86.63
49030;BME280;43337;52.070;4.508;2022-09-30T00:45:34;100891.34;;;9.71;86.48
49030;BME280;43337;52.070;4.508;2022-09-30T00:48:08;100942.78;;;10.01;86.58
49030;BME280;43337;52.070;4.508;2022-09-30T00:50:41;100952.56;;;9.98;86.47
49030;BME280;43337;52.070;4.508;2022-09-30T00:56:01;100921.19;;;9.70;86.94
49030;BME280;43337;52.070;4.508;2022-09-30T00:58:38;100956.44;;;9.88;86.72
49030;BME280;43337;52.070;4.508;2022-09-30T01:01:05;100965.88;;;9.93;86.50
49030;BME280;43337;52.070;4.508;2022-09-30T01:03:35;100959.03;;;9.89;86.95
49030;BME280;43337;52.070;4.508;2022-09-30T01:06:02;100960.06;;;9.85;86.98
49030;BME280;43337;52.070;4.508;2022-09-30T01:08:30;100959.38;;;9.80;86.64
49030;BME280;43337;52.070;4.508;2022-09-30T01:10:56;100968.16;;;9.79;86.78
49030;BME280;43337;52.070;4.508;2022-09-30T01:13:24;100955.47;;;9.67;86.91
49030;BME280;43337;52.070;4.508;2022-09-30T01:16:09;100941.69;;;9.60;86.95
49030;BME280;43337;52.070;4.508;2022-09-30T01:32:36;100970.94;;;9.51;86.58
49030;BME280;43337;52.070;4.508;2022-09-30T01:35:18;100970.19;;;9.47;86.56
49030;BME280;43337;52.070;4.508;2022-09-30T01:37:55;100968.66;;;9.42;86.78
49030;BME280;43337;52.070;4.508;2022-09-30T01:40:31;100947.38;;;9.24;86.57
49030;BME280;43337;52.070;4.508;2022-09-30T01:43:29;100973.38;;;9.32;86.93
49030;BME280;43337;52.070;4.508;2022-09-30T01:46:31;100988.19;;;9.35;86.86
49030;BME280;43337;52.070;4.508;2022-09-30T01:49:07;100985.69;;;9.30;86.54
49030;BME280;43337;52.070;4.508;2022-09-30T01:51:42;100971.97;;;9.22;86.37
49030;BME280;43337;52.070;4.508;2022-09-30T01:54:13;100977.13;;;9.25;86.59
49030;BME280;43337;52.070;4.508;2022-09-30T01:56:49;100964.16;;;9.20;86.82
49030;BME280;43337;52.070;4.508;2022-09-30T01:59:26;100965.09;;;9.18;86.60
49030;BME280;43337;52.070;4.508;2022-09-30T02:02:29;100934.25;;;8.99;86.74
49030;BME280;43337;52.070;4.508;2022-09-30T02:05:00;100954.75;;;9.13;86.91
49030;BME280;43337;52.070;4.508;2022-09-30T02:07:38;100935.13;;;8.98;86.82
49030;BME280;43337;52.070;4.508;2022-09-30T02:10:10;100955.97;;;9.03;86.91
49030;BME280;43337;52.070;4.508;2022-09-30T02:12:42;100948.06;;;9.04;86.98
49030;BME280;43337;52.070;4.508;2022-09-30T02:15:12;100952.38;;;9.07;87.25
49030;BME280;43337;52.070;4.508;2022-09-30T02:17:46;100932.66;;;8.94;86.72
49030;BME280;43337;52.070;4.508;2022-09-30T02:20:26;100939.75;;;8.92;86.65
49030;BME280;43337;52.070;4.508;2022-09-30T02:23:01;100956.22;;;8.95;86.93
49030;BME280;43337;52.070;4.508;2022-09-30T02:25:34;100957.06;;;8.97;87.20
49030;BME280;43337;52.070;4.508;2022-09-30T02:28:05;100974.25;;;9.06;87.05
49030;BME280;43337;52.070;4.508;2022-09-30T02:30:34;100962.47;;;8.93;86.93
49030;BME280;43337;52.070;4.508;2022-09-30T02:33:04;100974.59;;;8.97;87.39
49030;BME280;43337;52.070;4.508;2022-09-30T02:35:38;100947.25;;;8.76;86.97
49030;BME280;43337;52.070;4.508;2022-09-30T02:38:10;100986.75;;;8.99;87.15
49030;BME280;43337;52.070;4.508;2022-09-30T02:40:45;100971.34;;;8.89;86.92
49030;BME280;43337;52.070;4.508;2022-09-30T02:43:16;100986.88;;;8.95;87.14
49030;BME280;43337;52.070;4.508;2022-09-30T02:48:47;100960.28;;;8.79;87.04
49030;BME280;43337;52.070;4.508;2022-09-30T02:51:44;100986.19;;;8.90;87.10
49030;BME280;43337;52.070;4.508;2022-09-30T02:54:33;100975.19;;;8.78;87.08
49030;BME280;43337;52.070;4.508;2022-09-30T02:59:43;100976.78;;;8.84;87.20
49030;BME280;43337;52.070;4.508;2022-09-30T03:02:09;100978.41;;;8.87;87.63
49030;BME280;43337;52.070;4.508;2022-09-30T03:04:35;100949.44;;;8.63;87.49
49030;BME280;43337;52.070;4.508;2022-09-30T03:07:03;100983.81;;;8.82;87.06
49030;BME280;43337;52.070;4.508;2022-09-30T03:09:29;100972.81;;;8.71;87.37
49030;BME280;43337;52.070;4.508;2022-09-30T03:12:03;100987.41;;;8.79;87.59
49030;BME280;43337;52.070;4.508;2022-09-30T03:14:52;100981.53;;;8.71;87.42
49030;BME280;43337;52.070;4.508;2022-09-30T03:20:12;100986.69;;;8.74;87.47
49030;BME280;43337;52.070;4.508;2022-09-30T03:22:50;100984.16;;;8.71;87.68
49030;BME280;43337;52.070;4.508;2022-09-30T03:25:38;100977.38;;;8.66;87.44
49030;BME280;43337;52.070;4.508;2022-09-30T03:28:26;100969.88;;;8.53;87.52
49030;BME280;43337;52.070;4.508;2022-09-30T03:34:06;101006.25;;;8.64;87.68
49030;BME280;43337;52.070;4.508;2022-09-30T03:36:56;101009.72;;;8.66;87.54
49030;BME280;43337;52.070;4.508;2022-09-30T03:42:37;101016.00;;;8.61;87.46
49030;BME280;43337;52.070;4.508;2022-09-30T03:45:20;101017.78;;;8.60;87.71
49030;BME280;43337;52.070;4.508;2022-09-30T03:47:52;101006.75;;;8.49;87.49
49030;BME280;43337;52.070;4.508;2022-09-30T03:50:22;101014.63;;;8.49;87.71
49030;BME280;43337;52.070;4.508;2022-09-30T03:52:49;101008.50;;;8.48;87.22
49030;BME280;43337;52.070;4.508;2022-09-30T03:55:15;101014.59;;;8.50;87.34
49030;BME280;43337;52.070;4.508;2022-09-30T03:57:41;101006.97;;;8.41;87.26
49030;BME280;43337;52.070;4.508;2022-09-30T04:00:10;101014.75;;;8.46;87.76
49030;BME280;43337;52.070;4.508;2022-09-30T04:02:35;101006.31;;;8.33;87.42
49030;BME280;43337;52.070;4.508;2022-09-30T04:05:02;100992.50;;;8.28;87.40
49030;BME280;43337;52.070;4.508;2022-09-30T04:07:27;101018.47;;;8.37;87.68
49030;BME280;43337;52.070;4.508;2022-09-30T04:09:52;101021.13;;;8.36;87.61
49030;BME280;43337;52.070;4.508;2022-09-30T04:12:18;101024.66;;;8.35;87.60
49030;BME280;43337;52.070;4.508;2022-09-30T04:14:43;100996.50;;;8.12;87.84
49030;BME280;43337;52.070;4.508;2022-09-30T04:17:09;100982.94;;;7.97;87.61
49030;BME280;43337;52.070;4.508;2022-09-30T04:19:34;101041.44;;;8.29;87.88
49030;BME280;43337;52.070;4.508;2022-09-30T04:22:05;101038.88;;;8.26;87.56
49030;BME280;43337;52.070;4.508;2022-09-30T04:24:30;100999.34;;;8.04;87.59
49030;BME280;43337;52.070;4.508;2022-09-30T04:26:56;101046.88;;;8.23;88.18
49030;BME280;43337;52.070;4.508;2022-09-30T04:29:21;100990.09;;;7.92;87.82
49030;BME280;43337;52.070;4.508;2022-09-30T04:31:47;101030.38;;;8.19;87.89
49030;BME280;43337;52.070;4.508;2022-09-30T04:34:12;101034.78;;;8.17;88.11
49030;BME280;43337;52.070;4.508;2022-09-30T04:36:38;100990.84;;;7.96;88.03
49030;BME280;43337;52.070;4.508;2022-09-30T04:39:04;101001.06;;;8.05;88.24
49030;BME280;43337;52.070;4.508;2022-09-30T04:41:29;100980.25;;;7.99;88.33
49030;BME280;43337;52.070;4.508;2022-09-30T04:43:56;101019.72;;;8.24;88.05
49030;BME280;43337;52.070;4.508;2022-09-30T04:46:21;101035.25;;;8.31;88.33
49030;BME280;43337;52.070;4.508;2022-09-30T04:48:47;101024.03;;;8.26;88.47
49030;BME280;43337;52.070;4.508;2022-09-30T04:51:18;101042.91;;;8.39;88.37
49030;BME280;43337;52.070;4.508;2022-09-30T04:53:44;101041.84;;;8.45;88.80
49030;BME280;43337;52.070;4.508;2022-09-30T04:56:10;101017.81;;;8.29;88.96
49030;BME280;43337;52.070;4.508;2022-09-30T04:58:35;101054.88;;;8.48;88.58
49030;BME280;43337;52.070;4.508;2022-09-30T05:01:12;101067.94;;;8.51;88.44
49030;BME280;43337;52.070;4.508;2022-09-30T05:03:38;101032.56;;;8.33;88.45
49030;BME280;43337;52.070;4.508;2022-09-30T05:06:04;101052.34;;;8.45;88.68
49030;BME280;43337;52.070;4.508;2022-09-30T05:08:31;101055.09;;;8.42;88.87
49030;BME280;43337;52.070;4.508;2022-09-30T05:11:05;101034.38;;;8.31;88.88
49030;BME280;43337;52.070;4.508;2022-09-30T05:13:36;100996.66;;;8.05;88.69
49030;BME280;43337;52.070;4.508;2022-09-30T05:16:03;101042.25;;;8.31;88.58
49030;BME280;43337;52.070;4.508;2022-09-30T05:18:29;101070.78;;;8.43;88.69
49030;BME280;43337;52.070;4.508;2022-09-30T05:20:57;101032.03;;;8.22;89.02
49030;BME280;43337;52.070;4.508;2022-09-30T05:23:24;101058.72;;;8.36;89.04
49030;BME280;43337;52.070;4.508;2022-09-30T05:25:50;101061.34;;;8.36;89.01
49030;BME280;43337;52.070;4.508;2022-09-30T05:28:16;101059.56;;;8.37;88.99
49030;BME280;43337;52.070;4.508;2022-09-30T05:30:42;101058.72;;;8.36;89.47
49030;BME280;43337;52.070;4.508;2022-09-30T05:33:09;101050.78;;;8.39;89.65
49030;BME280;43337;52.070;4.508;2022-09-30T05:35:34;101044.88;;;8.31;89.16
49030;BME280;43337;52.070;4.508;2022-09-30T05:38:00;101068.00;;;8.48;89.36
49030;BME280;43337;52.070;4.508;2022-09-30T05:40:28;101057.56;;;8.46;89.47
49030;BME280;43337;52.070;4.508;2022-09-30T05:42:55;101036.09;;;8.32;89.60
49030;BME280;43337;52.070;4.508;2022-09-30T05:45:21;101051.56;;;8.43;89.59
49030;BME280;43337;52.070;4.508;2022-09-30T05:47:53;101070.47;;;8.54;89.67
49030;BME280;43337;52.070;4.508;2022-09-30T05:50:19;101065.25;;;8.52;89.60
49030;BME280;43337;52.070;4.508;2022-09-30T05:52:45;101075.66;;;8.55;89.55
49030;BME280;43337;52.070;4.508;2022-09-30T05:55:11;101072.13;;;8.56;89.81
49030;BME280;43337;52.070;4.508;2022-09-30T05:57:36;101031.59;;;8.37;89.74
49030;BME280;43337;52.070;4.508;2022-09-30T06:00:05;101066.09;;;8.53;90.13
49030;BME280;43337;52.070;4.508;2022-09-30T06:02:31;101071.09;;;8.61;90.07
49030;BME280;43337;52.070;4.508;2022-09-30T06:04:57;101041.06;;;8.43;90.08
49030;BME280;43337;52.070;4.508;2022-09-30T06:07:22;101071.03;;;8.64;90.42
49030;BME280;43337;52.070;4.508;2022-09-30T06:09:48;101029.72;;;8.42;90.42
49030;BME280;43337;52.070;4.508;2022-09-30T06:12:13;101082.13;;;8.73;90.09
49030;BME280;43337;52.070;4.508;2022-09-30T06:14:40;101050.78;;;8.67;90.09
49030;BME280;43337;52.070;4.508;2022-09-30T06:17:05;101026.72;;;8.54;90.16
49030;BME280;43337;52.070;4.508;2022-09-30T06:19:32;101063.44;;;8.83;90.25
49030;BME280;43337;52.070;4.508;2022-09-30T06:21:58;101072.69;;;8.94;90.72
49030;BME280;43337;52.070;4.508;2022-09-30T06:24:23;101067.28;;;8.99;90.72
49030;BME280;43337;52.070;4.508;2022-09-30T06:26:49;101042.25;;;8.89;90.95
49030;BME280;43337;52.070;4.508;2022-09-30T06:29:15;101032.53;;;8.91;90.83
49030;BME280;43337;52.070;4.508;2022-09-30T06:31:40;101078.88;;;9.20;90.51
49030;BME280;43337;52.070;4.508;2022-09-30T06:34:05;101088.03;;;9.35;90.69
49030;BME280;43337;52.070;4.508;2022-09-30T06:36:32;101070.66;;;9.31;91.02
49030;BME280;43337;52.070;4.508;2022-09-30T06:38:59;101056.63;;;9.30;90.64
49030;BME280;43337;52.070;4.508;2022-09-30T06:41:25;101064.97;;;9.43;90.68
49030;BME280;43337;52.070;4.508;2022-09-30T06:43:51;101100.91;;;9.67;91.08
49030;BME280;43337;52.070;4.508;2022-09-30T06:46:19;101094.53;;;9.74;90.95
49030;BME280;43337;52.070;4.508;2022-09-30T06:48:49;101104.59;;;9.88;90.94
49030;BME280;43337;52.070;4.508;2022-09-30T06:51:17;101105.16;;;9.96;90.78
49030;BME280;43337;52.070;4.508;2022-09-30T06:53:43;101077.63;;;9.82;91.00
49030;BME280;43337;52.070;4.508;2022-09-30T06:56:08;101055.84;;;9.78;90.54
49030;BME280;43337;52.070;4.508;2022-09-30T06:58:33;101036.69;;;9.74;90.49
49030;BME280;43337;52.070;4.508;2022-09-30T07:01:01;101065.00;;;9.91;90.72
49030;BME280;43337;52.070;4.508;2022-09-30T07:03:31;101100.09;;;10.15;90.71
49030;BME280;43337;52.070;4.508;2022-09-30T07:05:58;101104.38;;;10.18;90.94
49030;BME280;43337;52.070;4.508;2022-09-30T07:08:25;101077.56;;;10.08;90.57
49030;BME280;43337;52.070;4.508;2022-09-30T07:10:53;101093.59;;;10.25;90.59
49030;BME280;43337;52.070;4.508;2022-09-30T07:13:18;101098.84;;;10.27;90.67
49030;BME280;43337;52.070;4.508;2022-09-30T07:15:44;101082.25;;;10.23;90.80
49030;BME280;43337;52.070;4.508;2022-09-30T07:18:09;101084.69;;;10.30;90.89
49030;BME280;43337;52.070;4.508;2022-09-30T07:20:34;101081.31;;;10.26;90.53
49030;BME280;43337;52.070;4.508;2022-09-30T07:23:00;101044.22;;;10.09;90.83
49030;BME280;43337;52.070;4.508;2022-09-30T07:25:25;101028.44;;;10.09;90.77
49030;BME280;43337;52.070;4.508;2022-09-30T07:27:51;101046.28;;;10.24;90.72
49030;BME280;43337;52.070;4.508;2022-09-30T07:30:17;101082.72;;;10.58;90.29
49030;BME280;43337;52.070;4.508;2022-09-30T07:32:43;101074.84;;;10.58;90.09
49030;BME280;43337;52.070;4.508;2022-09-30T07:35:08;101077.84;;;10.71;90.62
49030;BME280;43337;52.070;4.508;2022-09-30T07:37:33;101076.59;;;10.80;90.30
49030;BME280;43337;52.070;4.508;2022-09-30T07:40:01;101078.94;;;10.87;90.22
49030;BME280;43337;52.070;4.508;2022-09-30T07:42:27;101080.41;;;10.94;90.23
49030;BME280;43337;52.070;4.508;2022-09-30T07:44:55;101067.31;;;10.93;89.90
49030;BME280;43337;52.070;4.508;2022-09-30T07:47:20;101076.56;;;11.03;89.95
49030;BME280;43337;52.070;4.508;2022-09-30T07:49:47;101078.63;;;11.17;89.68
49030;BME280;43337;52.070;4.508;2022-09-30T07:52:12;101072.25;;;11.22;89.82
49030;BME280;43337;52.070;4.508;2022-09-30T07:54:38;101078.19;;;11.28;89.80
49030;BME280;43337;52.070;4.508;2022-09-30T07:57:04;101071.88;;;11.32;89.53
49030;BME280;43337;52.070;4.508;2022-09-30T07:59:34;101053.34;;;11.33;89.56
49030;BME280;43337;52.070;4.508;2022-09-30T08:02:00;101073.78;;;11.48;89.38
49030;BME280;43337;52.070;4.508;2022-09-30T08:04:25;101071.69;;;11.57;89.58
49030;BME280;43337;52.070;4.508;2022-09-30T08:06:56;101074.88;;;11.65;89.35
49030;BME280;43337;52.070;4.508;2022-09-30T08:09:24;101069.84;;;11.59;89.50
49030;BME280;43337;52.070;4.508;2022-09-30T08:11:49;101075.31;;;11.74;89.25
49030;BME280;43337;52.070;4.508;2022-09-30T08:14:17;101034.72;;;11.58;89.35
49030;BME280;43337;52.070;4.508;2022-09-30T08:16:43;101076.38;;;11.91;89.29
49030;BME280;43337;52.070;4.508;2022-09-30T08:19:21;101075.91;;;12.02;89.02
49030;BME280;43337;52.070;4.508;2022-09-30T08:21:47;101084.41;;;12.08;89.10
49030;BME280;43337;52.070;4.508;2022-09-30T08:24:14;101077.22;;;12.12;88.49
49030;BME280;43337;52.070;4.508;2022-09-30T08:26:39;101028.88;;;11.91;88.60
49030;BME280;43337;52.070;4.508;2022-09-30T08:29:05;101068.97;;;12.19;88.52
49030;BME280;43337;52.070;4.508;2022-09-30T08:31:31;101063.00;;;12.14;88.15
49030;BME280;43337;52.070;4.508;2022-09-30T08:33:57;101086.72;;;12.35;88.15
49030;BME280;43337;52.070;4.508;2022-09-30T08:36:25;101070.03;;;12.34;88.35
49030;BME280;43337;52.070;4.508;2022-09-30T08:38:51;101057.69;;;12.35;88.10
49030;BME280;43337;52.070;4.508;2022-09-30T08:46:47;101086.38;;;12.80;87.52
49030;BME280;43337;52.070;4.508;2022-09-30T08:52:41;101075.78;;;12.99;87.11
49030;BME280;43337;52.070;4.508;2022-09-30T08:55:23;101078.03;;;13.07;86.61
49030;BME280;43337;52.070;4.508;2022-09-30T08:57:51;101052.84;;;13.00;86.89
49030;BME280;43337;52.070;4.508;2022-09-30T09:00:17;101077.44;;;13.19;86.88
49030;BME280;43337;52.070;4.508;2022-09-30T09:05:40;101093.97;;;13.41;86.61
49030;BME280;43337;52.070;4.508;2022-09-30T09:17:53;101078.31;;;13.72;84.92
49030;BME280;43337;52.070;4.508;2022-09-30T09:20:24;101087.19;;;13.88;84.91
49030;BME280;43337;52.070;4.508;2022-09-30T09:22:54;101067.78;;;13.87;84.22
49030;BME280;43337;52.070;4.508;2022-09-30T09:25:25;101079.28;;;14.04;83.78
49030;BME280;43337;52.070;4.508;2022-09-30T09:28:00;101068.53;;;14.07;83.47
49030;BME280;43337;52.070;4.508;2022-09-30T09:30:48;101075.66;;;14.22;81.45
49030;BME280;43337;52.070;4.508;2022-09-30T09:33:22;101077.72;;;14.33;82.19
49030;BME280;43337;52.070;4.508;2022-09-30T09:44:04;101094.28;;;14.85;78.64
49030;BME280;43337;52.070;4.508;2022-09-30T09:46:53;101084.03;;;14.95;79.21
49030;BME280;43337;52.070;4.508;2022-09-30T09:54:24;101058.09;;;15.00;78.10
49030;BME280;43337;52.070;4.508;2022-09-30T09:56:52;101050.03;;;15.02;77.61
49030;BME280;43337;52.070;4.508;2022-09-30T09:59:19;101064.31;;;15.15;77.37
49030;BME280;43337;52.070;4.508;2022-09-30T10:01:47;101068.97;;;15.26;77.27
49030;BME280;43337;52.070;4.508;2022-09-30T10:04:20;101045.31;;;15.23;76.43
49030;BME280;43337;52.070;4.508;2022-09-30T10:09:34;101082.84;;;15.61;76.09
49030;BME280;43337;52.070;4.508;2022-09-30T10:14:35;101072.28;;;15.59;74.74
49030;BME280;43337;52.070;4.508;2022-09-30T10:17:02;101038.88;;;15.41;74.30
49030;BME280;43337;52.070;4.508;2022-09-30T10:19:30;101091.97;;;15.71;74.21
49030;BME280;43337;52.070;4.508;2022-09-30T10:24:38;101049.78;;;15.67;73.77
49030;BME280;43337;52.070;4.508;2022-09-30T10:27:28;101058.53;;;15.69;73.11
49030;BME280;43337;52.070;4.508;2022-09-30T10:29:54;101070.19;;;15.80;72.61
49030;BME280;43337;52.070;4.508;2022-09-30T10:32:21;101076.75;;;15.89;72.71
49030;BME280;43337;52.070;4.508;2022-09-30T10:35:03;101049.88;;;15.65;72.84
49030;BME280;43337;52.070;4.508;2022-09-30T10:37:30;101038.47;;;15.63;72.92
49030;BME280;43337;52.070;4.508;2022-09-30T10:40:02;101047.44;;;15.76;72.29
49030;BME280;43337;52.070;4.508;2022-09-30T10:42:31;101088.31;;;16.02;72.97
49030;BME280;43337;52.070;4.508;2022-09-30T10:45:02;101054.47;;;15.92;72.88
49030;BME280;43337;52.070;4.508;2022-09-30T10:47:31;101035.97;;;15.90;72.38
49030;BME280;43337;52.070;4.508;2022-09-30T10:50:05;101041.28;;;15.90;72.30
49030;BME280;43337;52.070;4.508;2022-09-30T10:52:37;101072.38;;;16.02;72.04
49030;BME280;43337;52.070;4.508;2022-09-30T10:55:33;101031.34;;;15.63;72.01
49030;BME280;43337;52.070;4.508;2022-09-30T10:59:04;101039.69;;;15.57;71.72
49030;BME280;43337;52.070;4.508;2022-09-30T11:01:25;101076.91;;;15.72;70.67
49030;BME280;43337;52.070;4.508;2022-09-30T11:06:22;101069.91;;;15.55;71.56
49030;BME280;43337;52.070;4.508;2022-09-30T11:09:00;101054.22;;;15.36;71.54
49030;BME280;43337;52.070;4.508;2022-09-30T11:11:35;101072.47;;;15.42;71.60
49030;BME280;43337;52.070;4.508;2022-09-30T11:16:45;101068.44;;;15.35;71.62
49030;BME280;43337;52.070;4.508;2022-09-30T11:24:44;101053.59;;;15.47;72.10
49030;BME280;43337;52.070;4.508;2022-09-30T11:30:10;101057.31;;;15.58;70.65
49030;BME280;43337;52.070;4.508;2022-09-30T11:41:29;101041.25;;;15.76;71.19
49030;BME280;43337;52.070;4.508;2022-09-30T11:44:27;101003.28;;;15.59;70.54
49030;BME280;43337;52.070;4.508;2022-09-30T11:55:45;101033.78;;;15.52;70.23
49030;BME280;43337;52.070;4.508;2022-09-30T11:58:20;101029.72;;;15.47;70.98
49030;BME280;43337;52.070;4.508;2022-09-30T12:00:54;101010.25;;;15.32;71.14
49030;BME280;43337;52.070;4.508;2022-09-30T12:03:33;100992.94;;;15.26;71.27
49030;BME280;43337;52.070;4.508;2022-09-30T12:06:10;101018.94;;;15.64;71.55
49030;BME280;43337;52.070;4.508;2022-09-30T12:08:49;101007.41;;;15.79;71.50
49030;BME280;43337;52.070;4.508;2022-09-30T12:11:31;100975.38;;;15.82;71.24
49030;BME280;43337;52.070;4.508;2022-09-30T12:14:03;100996.78;;;16.08;71.13
49030;BME280;43337;52.070;4.508;2022-09-30T12:16:31;101004.63;;;16.24;70.68
49030;BME280;43337;52.070;4.508;2022-09-30T12:19:42;101006.50;;;16.36;70.27
49030;BME280;43337;52.070;4.508;2022-09-30T12:22:13;100992.84;;;16.42;70.28
49030;BME280;43337;52.070;4.508;2022-09-30T12:24:42;100996.31;;;16.57;70.12
49030;BME280;43337;52.070;4.508;2022-09-30T12:27:31;101011.34;;;16.71;69.94
49030;BME280;43337;52.070;4.508;2022-09-30T12:30:04;100975.59;;;16.62;69.39
49030;BME280;43337;52.070;4.508;2022-09-30T12:32:54;101001.75;;;16.82;68.93
49030;BME280;43337;52.070;4.508;2022-09-30T12:43:50;100967.63;;;16.62;67.78
49030;BME280;43337;52.070;4.508;2022-09-30T12:46:52;100990.06;;;16.85;65.50
49030;BME280;43337;52.070;4.508;2022-09-30T12:49:24;100984.56;;;16.88;66.97
49030;BME280;43337;52.070;4.508;2022-09-30T12:51:56;100986.50;;;16.99;66.60
49030;BME280;43337;52.070;4.508;2022-09-30T12:54:46;100945.06;;;16.82;66.27
49030;BME280;43337;52.070;4.508;2022-09-30T12:57:19;100963.06;;;16.91;66.28
49030;BME280;43337;52.070;4.508;2022-09-30T12:59:55;100934.94;;;16.74;66.11
49030;BME280;43337;52.070;4.508;2022-09-30T13:02:29;100956.47;;;16.84;65.19
49030;BME280;43337;52.070;4.508;2022-09-30T13:10:46;100965.63;;;16.93;65.02
49030;BME280;43337;52.070;4.508;2022-09-30T13:15:48;100917.44;;;16.70;66.22
49030;BME280;43337;52.070;4.508;2022-09-30T13:28:53;100960.31;;;17.05;64.71
49030;BME280;43337;52.070;4.508;2022-09-30T13:31:23;100953.94;;;17.08;64.05
49030;BME280;43337;52.070;4.508;2022-09-30T13:42:27;100953.88;;;17.22;60.99
49030;BME280;43337;52.070;4.508;2022-09-30T13:45:03;100962.78;;;17.21;60.23
49030;BME280;43337;52.070;4.508;2022-09-30T13:47:42;100967.25;;;17.21;58.27
49030;BME280;43337;52.070;4.508;2022-09-30T13:50:19;100945.00;;;17.09;58.32
49030;BME280;43337;52.070;4.508;2022-09-30T13:52:54;100955.03;;;17.18;57.68
49030;BME280;43337;52.070;4.508;2022-09-30T13:55:24;100956.16;;;17.14;58.32
49030;BME280;43337;52.070;4.508;2022-09-30T13:58:15;100955.66;;;17.22;56.81
49030;BME280;43337;52.070;4.508;2022-09-30T14:01:04;100949.19;;;17.26;57.30
49030;BME280;43337;52.070;4.508;2022-09-30T14:06:25;100958.94;;;17.25;57.51
49030;BME280;43337;52.070;4.508;2022-09-30T14:13:00;100930.22;;;17.18;57.85
49030;BME280;43337;52.070;4.508;2022-09-30T14:15:25;100921.69;;;17.13;57.91
49030;BME280;43337;52.070;4.508;2022-09-30T14:21:15;100911.69;;;17.03;58.12
49030;BME280;43337;52.070;4.508;2022-09-30T14:23:45;100913.41;;;17.04;58.29
49030;BME280;43337;52.070;4.508;2022-09-30T14:26:47;100899.03;;;17.07;58.15
49030;BME280;43337;52.070;4.508;2022-09-30T14:32:27;100882.53;;;16.89;57.46
49030;BME280;43337;52.070;4.508;2022-09-30T14:34:54;100879.53;;;16.81;58.19
49030;BME280;43337;52.070;4.508;2022-09-30T14:37:31;100905.94;;;16.97;55.71
49030;BME280;43337;52.070;4.508;2022-09-30T14:39:58;100862.13;;;16.63;57.48
49030;BME280;43337;52.070;4.508;2022-09-30T14:42:28;100913.56;;;16.76;57.62
49030;BME280;43337;52.070;4.508;2022-09-30T14:45:00;100901.34;;;16.73;57.54
49030;BME280;43337;52.070;4.508;2022-09-30T14:47:37;100869.66;;;16.56;58.03
49030;BME280;43337;52.070;4.508;2022-09-30T14:50:14;100892.00;;;16.53;58.19
49030;BME280;43337;52.070;4.508;2022-09-30T14:52:43;100887.09;;;16.47;58.27
49030;BME280;43337;52.070;4.508;2022-09-30T14:55:19;100918.72;;;16.65;58.19
49030;BME280;43337;52.070;4.508;2022-09-30T14:57:47;100878.78;;;16.52;58.37
49030;BME280;43337;52.070;4.508;2022-09-30T15:00:26;100851.53;;;16.35;58.57
49030;BME280;43337;52.070;4.508;2022-09-30T15:02:52;100896.16;;;16.57;58.63
49030;BME280;43337;52.070;4.508;2022-09-30T15:05:18;100895.59;;;16.52;58.71
49030;BME280;43337;52.070;4.508;2022-09-30T15:07:43;100880.81;;;16.48;58.83
49030;BME280;43337;52.070;4.508;2022-09-30T15:10:35;100900.06;;;16.52;58.45
49030;BME280;43337;52.070;4.508;2022-09-30T15:13:01;100897.50;;;16.50;58.73
49030;BME280;43337;52.070;4.508;2022-09-30T15:15:35;100886.22;;;16.47;58.32
49030;BME280;43337;52.070;4.508;2022-09-30T15:18:21;100904.00;;;16.46;59.06
49030;BME280;43337;52.070;4.508;2022-09-30T15:20:47;100896.31;;;16.42;59.33
49030;BME280;43337;52.070;4.508;2022-09-30T15:23:20;100893.09;;;16.36;59.18
49030;BME280;43337;52.070;4.508;2022-09-30T15:25:46;100859.72;;;16.05;59.60
49030;BME280;43337;52.070;4.508;2022-09-30T15:28:12;100873.34;;;16.14;59.71
49030;BME280;43337;52.070;4.508;2022-09-30T15:30:39;100885.47;;;16.18;60.00
49030;BME280;43337;52.070;4.508;2022-09-30T15:33:14;100900.97;;;16.11;60.27
49030;BME280;43337;52.070;4.508;2022-09-30T15:35:41;100901.63;;;16.15;60.28
49030;BME280;43337;52.070;4.508;2022-09-30T15:38:09;100883.72;;;16.04;60.54
49030;BME280;43337;52.070;4.508;2022-09-30T15:40:43;100858.25;;;15.87;60.84
49030;BME280;43337;52.070;4.508;2022-09-30T15:43:41;100883.38;;;15.96;60.96
49030;BME280;43337;52.070;4.508;2022-09-30T15:46:22;100853.44;;;15.79;61.54
49030;BME280;43337;52.070;4.508;2022-09-30T15:48:55;100880.16;;;15.91;61.56
49030;BME280;43337;52.070;4.508;2022-09-30T15:51:35;100870.66;;;15.86;61.48